sensor_id;sensor_type;location;lat;lon;timestamp;P1;durP1;ratioP1;P2;durP2;ratioP2
51754;SDS011;37829;50.370;30.428;2022-11-20T13:42:44;38.03;;;23.47;;
51754;SDS011;37829;50.370;30.428;2022-11-20T13:43:46;35.13;;;21.65;;
51754;SDS011;37829;50.370;30.428;2022-11-20T13:44:50;32.58;;;19.95;;
51754;SDS011;37829;50.370;30.428;2022-11-20T13:45:58;34.67;;;20.05;;
51754;SDS011;37829;50.370;30.428;2022-11-20T13:47:17;34.63;;;19.67;;
51754;SDS011;37829;50.370;30.428;2022-11-20T13:48:21;32.50;;;19.92;;
51754;SDS011;37829;50.370;30.428;2022-11-20T13:50:27;35.42;;;19.58;;
51754;SDS011;37829;50.370;30.428;2022-11-20T13:51:34;31.92;;;18.15;;
51754;SDS011;37829;50.370;30.428;2022-11-20T13:52:39;36.28;;;20.70;;
51754;SDS011;37829;50.370;30.428;2022-11-20T13:53:48;37.22;;;21.63;;
51754;SDS011;37829;50.370;30.428;2022-11-20T13:54:55;32.20;;;17.77;;
51754;SDS011;37829;50.370;30.428;2022-11-20T13:55:59;35.38;;;20.90;;
51754;SDS011;37829;50.370;30.428;2022-11-20T13:57:03;37.55;;;23.52;;
51754;SDS011;37829;50.370;30.428;2022-11-20T13:58:17;35.03;;;17.42;;
51754;SDS011;37829;50.370;30.428;2022-11-20T13:59:26;34.75;;;20.67;;
51754;SDS011;37829;50.370;30.428;2022-11-20T14:00:29;36.40;;;20.45;;
51754;SDS011;37829;50.370;30.428;2022-11-20T14:01:30;37.88;;;24.05;;
51754;SDS011;37829;50.370;30.428;2022-11-20T14:02:32;39.30;;;21.60;;
51754;SDS011;37829;50.370;30.428;2022-11-20T14:03:33;36.00;;;22.23;;
51754;SDS011;37829;50.370;30.428;2022-11-20T14:04:56;34.05;;;18.45;;
51754;SDS011;37829;50.370;30.428;2022-11-20T14:05:59;38.95;;;23.15;;
51754;SDS011;37829;50.370;30.428;2022-11-20T14:07:04;38.60;;;22.63;;
51754;SDS011;37829;50.370;30.428;2022-11-20T14:08:06;38.25;;;21.67;;
51754;SDS011;37829;50.370;30.428;2022-11-20T14:09:12;31.88;;;18.02;;
51754;SDS011;37829;50.370;30.428;2022-11-20T14:10:19;39.90;;;24.92;;
51754;SDS011;37829;50.370;30.428;2022-11-20T14:11:21;34.92;;;18.77;;
51754;SDS011;37829;50.370;30.428;2022-11-20T14:13:23;33.20;;;16.45;;
51754;SDS011;37829;50.370;30.428;2022-11-20T14:14:25;38.60;;;25.25;;
51754;SDS011;37829;50.370;30.428;2022-11-20T14:15:28;36.38;;;21.60;;
51754;SDS011;37829;50.370;30.428;2022-11-20T14:16:30;40.28;;;22.73;;
51754;SDS011;37829;50.370;30.428;2022-11-20T14:18:32;39.80;;;20.33;;
51754;SDS011;37829;50.370;30.428;2022-11-20T14:19:33;35.78;;;19.35;;
51754;SDS011;37829;50.370;30.428;2022-11-20T14:20:34;42.17;;;25.08;;
51754;SDS011;37829;50.370;30.428;2022-11-20T14:21:37;38.00;;;20.90;;
51754;SDS011;37829;50.370;30.428;2022-11-20T14:22:38;39.72;;;25.52;;
51754;SDS011;37829;50.370;30.428;2022-11-20T14:23:39;41.70;;;23.33;;
51754;SDS011;37829;50.370;30.428;2022-11-20T14:24:40;37.92;;;23.58;;
51754;SDS011;37829;50.370;30.428;2022-11-20T14:25:41;37.47;;;20.35;;
51754;SDS011;37829;50.370;30.428;2022-11-20T14:26:43;42.63;;;25.30;;
51754;SDS011;37829;50.370;30.428;2022-11-20T14:27:45;37.75;;;20.17;;
51754;SDS011;37829;50.370;30.428;2022-11-20T14:28:49;44.75;;;26.35;;
51754;SDS011;37829;50.370;30.428;2022-11-20T14:29:51;43.45;;;22.92;;
51754;SDS011;37829;50.370;30.428;2022-11-20T14:30:53;44.20;;;26.30;;
51754;SDS011;37829;50.370;30.428;2022-11-20T14:31:54;36.10;;;19.60;;
51754;SDS011;37829;50.370;30.428;2022-11-20T14:32:57;40.58;;;20.13;;
51754;SDS011;37829;50.370;30.428;2022-11-20T14:34:01;40.83;;;26.17;;
51754;SDS011;37829;50.370;30.428;2022-11-20T14:35:07;37.05;;;22.10;;
51754;SDS011;37829;50.370;30.428;2022-11-20T14:36:15;39.00;;;19.92;;
51754;SDS011;37829;50.370;30.428;2022-11-20T14:37:19;40.95;;;25.85;;
51754;SDS011;37829;50.370;30.428;2022-11-20T14:38:22;36.38;;;20.83;;
51754;SDS011;37829;50.370;30.428;2022-11-20T14:39:25;44.08;;;26.40;;
51754;SDS011;37829;50.370;30.428;2022-11-20T14:40:30;35.33;;;19.60;;
51754;SDS011;37829;50.370;30.428;2022-11-20T14:42:33;35.50;;;15.93;;
51754;SDS011;37829;50.370;30.428;2022-11-20T14:43:34;40.30;;;24.27;;
51754;SDS011;37829;50.370;30.428;2022-11-20T14:44:38;34.92;;;20.45;;
51754;SDS011;37829;50.370;30.428;2022-11-20T14:45:40;38.42;;;21.30;;
51754;SDS011;37829;50.370;30.428;2022-11-20T14:46:41;40.97;;;25.38;;
51754;SDS011;37829;50.370;30.428;2022-11-20T14:47:43;38.28;;;20.95;;
51754;SDS011;37829;50.370;30.428;2022-11-20T14:48:45;44.35;;;25.83;;
51754;SDS011;37829;50.370;30.428;2022-11-20T14:49:47;38.15;;;21.45;;
51754;SDS011;37829;50.370;30.428;2022-11-20T14:50:48;40.80;;;25.42;;
51754;SDS011;37829;50.370;30.428;2022-11-20T14:51:58;40.00;;;21.27;;
51754;SDS011;37829;50.370;30.428;2022-11-20T14:52:59;39.53;;;22.27;;
51754;SDS011;37829;50.370;30.428;2022-11-20T18:21:10;46.67;;;23.80;;
51754;SDS011;37829;50.370;30.428;2022-11-20T18:22:12;44.50;;;24.92;;
51754;SDS011;37829;50.370;30.428;2022-11-20T18:23:13;46.28;;;24.67;;
51754;SDS011;37829;50.370;30.428;2022-11-20T18:24:14;45.83;;;23.20;;
51754;SDS011;37829;50.370;30.428;2022-11-20T18:25:15;40.28;;;19.70;;
51754;SDS011;37829;50.370;30.428;2022-11-20T18:26:17;43.47;;;23.90;;
51754;SDS011;37829;50.370;30.428;2022-11-20T18:27:18;36.70;;;18.83;;
51754;SDS011;37829;50.370;30.428;2022-11-20T18:29:21;31.73;;;16.08;;
51754;SDS011;37829;50.370;30.428;2022-11-20T18:30:23;44.85;;;23.50;;
51754;SDS011;37829;50.370;30.428;2022-11-20T18:31:25;42.60;;;22.77;;
51754;SDS011;37829;50.370;30.428;2022-11-20T18:32:26;33.35;;;17.50;;
51754;SDS011;37829;50.370;30.428;2022-11-20T18:33:29;40.20;;;20.92;;
51754;SDS011;37829;50.370;30.428;2022-11-20T18:34:30;41.30;;;22.95;;
51754;SDS011;37829;50.370;30.428;2022-11-20T18:35:31;33.40;;;19.58;;
51754;SDS011;37829;50.370;30.428;2022-11-20T18:36:33;37.08;;;20.15;;
51754;SDS011;37829;50.370;30.428;2022-11-20T18:37:34;39.53;;;21.65;;
51754;SDS011;37829;50.370;30.428;2022-11-20T18:38:35;36.15;;;21.08;;
51754;SDS011;37829;50.370;30.428;2022-11-20T18:39:40;34.33;;;20.67;;
51754;SDS011;37829;50.370;30.428;2022-11-20T18:40:41;41.97;;;24.38;;
51754;SDS011;37829;50.370;30.428;2022-11-20T18:41:42;31.45;;;15.38;;
51754;SDS011;37829;50.370;30.428;2022-11-20T18:43:02;37.00;;;19.67;;
51754;SDS011;37829;50.370;30.428;2022-11-20T18:44:36;35.00;;;18.75;;
51754;SDS011;37829;50.370;30.428;2022-11-20T18:46:00;36.08;;;19.27;;
51754;SDS011;37829;50.370;30.428;2022-11-20T18:47:02;37.78;;;20.75;;
51754;SDS011;37829;50.370;30.428;2022-11-20T18:48:14;34.22;;;18.02;;
51754;SDS011;37829;50.370;30.428;2022-11-20T18:49:15;30.58;;;18.33;;
51754;SDS011;37829;50.370;30.428;2022-11-20T18:50:16;34.03;;;18.67;;
51754;SDS011;37829;50.370;30.428;2022-11-20T18:51:18;32.53;;;19.88;;
51754;SDS011;37829;50.370;30.428;2022-11-20T18:52:21;29.87;;;17.30;;
51754;SDS011;37829;50.370;30.428;2022-11-20T18:53:22;32.20;;;16.55;;
51754;SDS011;37829;50.370;30.428;2022-11-20T18:54:24;33.65;;;20.85;;
51754;SDS011;37829;50.370;30.428;2022-11-20T18:55:25;33.22;;;19.05;;
51754;SDS011;37829;50.370;30.428;2022-11-20T18:56:45;31.38;;;18.45;;
51754;SDS011;37829;50.370;30.428;2022-11-20T18:57:46;33.67;;;17.05;;
51754;SDS011;37829;50.370;30.428;2022-11-20T18:58:48;32.65;;;17.08;;
51754;SDS011;37829;50.370;30.428;2022-11-20T18:59:49;28.08;;;15.25;;
51754;SDS011;37829;50.370;30.428;2022-11-20T19:00:50;34.83;;;21.73;;
51754;SDS011;37829;50.370;30.428;2022-11-20T19:01:51;29.38;;;16.42;;
51754;SDS011;37829;50.370;30.428;2022-11-20T19:02:52;35.67;;;21.42;;
51754;SDS011;37829;50.370;30.428;2022-11-20T19:03:54;33.92;;;20.67;;
51754;SDS011;37829;50.370;30.428;2022-11-20T19:04:55;32.17;;;14.87;;
51754;SDS011;37829;50.370;30.428;2022-11-20T19:05:56;34.08;;;22.15;;
51754;SDS011;37829;50.370;30.428;2022-11-20T19:06:58;36.72;;;20.08;;
51754;SDS011;37829;50.370;30.428;2022-11-20T19:08:00;31.35;;;18.65;;
51754;SDS011;37829;50.370;30.428;2022-11-20T19:09:03;33.13;;;19.25;;
51754;SDS011;37829;50.370;30.428;2022-11-20T19:10:04;35.42;;;19.70;;
51754;SDS011;37829;50.370;30.428;2022-11-20T19:12:07;29.60;;;13.88;;
51754;SDS011;37829;50.370;30.428;2022-11-20T19:13:08;35.92;;;20.98;;
51754;SDS011;37829;50.370;30.428;2022-11-20T19:14:09;35.55;;;20.13;;
51754;SDS011;37829;50.370;30.428;2022-11-20T19:15:11;34.10;;;18.65;;
51754;SDS011;37829;50.370;30.428;2022-11-20T19:16:12;32.28;;;18.63;;
51754;SDS011;37829;50.370;30.428;2022-11-20T19:18:16;29.40;;;15.05;;
51754;SDS011;37829;50.370;30.428;2022-11-20T19:19:17;34.95;;;20.98;;
51754;SDS011;37829;50.370;30.428;2022-11-20T19:20:19;29.98;;;16.40;;
51754;SDS011;37829;50.370;30.428;2022-11-20T19:21:21;34.05;;;19.50;;
51754;SDS011;37829;50.370;30.428;2022-11-20T19:22:22;32.83;;;19.52;;
51754;SDS011;37829;50.370;30.428;2022-11-20T19:23:24;36.20;;;21.15;;
51754;SDS011;37829;50.370;30.428;2022-11-20T19:24:25;33.38;;;18.77;;
51754;SDS011;37829;50.370;30.428;2022-11-20T19:25:29;33.85;;;21.00;;
51754;SDS011;37829;50.370;30.428;2022-11-20T19:26:37;31.20;;;17.90;;
51754;SDS011;37829;50.370;30.428;2022-11-20T19:27:38;32.00;;;20.00;;
51754;SDS011;37829;50.370;30.428;2022-11-20T19:28:39;32.65;;;20.15;;
51754;SDS011;37829;50.370;30.428;2022-11-20T19:29:40;32.50;;;17.88;;
51754;SDS011;37829;50.370;30.428;2022-11-20T19:30:41;35.40;;;21.63;;
51754;SDS011;37829;50.370;30.428;2022-11-20T19:31:42;29.77;;;17.75;;
51754;SDS011;37829;50.370;30.428;2022-11-20T19:32:43;35.13;;;21.80;;
51754;SDS011;37829;50.370;30.428;2022-11-20T19:33:44;32.37;;;18.47;;
51754;SDS011;37829;50.370;30.428;2022-11-20T19:34:46;32.33;;;18.65;;
51754;SDS011;37829;50.370;30.428;2022-11-20T19:35:47;37.30;;;22.20;;
51754;SDS011;37829;50.370;30.428;2022-11-20T19:37:50;27.42;;;13.95;;
51754;SDS011;37829;50.370;30.428;2022-11-20T19:38:52;33.08;;;19.77;;
51754;SDS011;37829;50.370;30.428;2022-11-20T19:40:58;33.60;;;16.00;;
51754;SDS011;37829;50.370;30.428;2022-11-20T19:41:59;35.03;;;21.60;;
51754;SDS011;37829;50.370;30.428;2022-11-20T19:43:00;34.80;;;20.13;;
51754;SDS011;37829;50.370;30.428;2022-11-20T19:44:01;34.63;;;21.75;;
51754;SDS011;37829;50.370;30.428;2022-11-20T19:46:04;28.67;;;14.88;;
51754;SDS011;37829;50.370;30.428;2022-11-20T19:47:05;33.20;;;18.60;;
51754;SDS011;37829;50.370;30.428;2022-11-20T19:48:14;29.75;;;15.52;;
51754;SDS011;37829;50.370;30.428;2022-11-20T19:49:15;35.73;;;22.27;;
51754;SDS011;37829;50.370;30.428;2022-11-20T19:50:16;30.13;;;15.85;;
51754;SDS011;37829;50.370;30.428;2022-11-20T19:51:17;36.70;;;22.08;;
51754;SDS011;37829;50.370;30.428;2022-11-20T19:53:20;31.80;;;16.23;;
51754;SDS011;37829;50.370;30.428;2022-11-20T19:54:21;33.20;;;19.55;;
51754;SDS011;37829;50.370;30.428;2022-11-20T19:55:23;34.03;;;19.45;;
51754;SDS011;37829;50.370;30.428;2022-11-20T19:56:24;35.92;;;22.00;;
51754;SDS011;37829;50.370;30.428;2022-11-20T19:57:25;33.10;;;19.17;;
51754;SDS011;37829;50.370;30.428;2022-11-20T19:58:26;33.42;;;20.05;;
51754;SDS011;37829;50.370;30.428;2022-11-20T19:59:27;32.45;;;19.92;;
51754;SDS011;37829;50.370;30.428;2022-11-20T20:00:29;37.80;;;20.33;;
51754;SDS011;37829;50.370;30.428;2022-11-20T20:01:33;32.97;;;18.35;;
51754;SDS011;37829;50.370;30.428;2022-11-20T20:02:35;37.33;;;22.35;;
51754;SDS011;37829;50.370;30.428;2022-11-20T20:03:36;36.23;;;21.40;;
51754;SDS011;37829;50.370;30.428;2022-11-20T20:04:37;33.92;;;19.52;;
51754;SDS011;37829;50.370;30.428;2022-11-20T20:05:38;34.13;;;20.50;;
51754;SDS011;37829;50.370;30.428;2022-11-20T20:06:39;37.58;;;22.75;;
51754;SDS011;37829;50.370;30.428;2022-11-20T20:07:41;38.25;;;20.88;;
51754;SDS011;37829;50.370;30.428;2022-11-20T20:08:42;34.07;;;17.50;;
51754;SDS011;37829;50.370;30.428;2022-11-20T20:09:44;41.03;;;23.95;;
51754;SDS011;37829;50.370;30.428;2022-11-20T20:10:45;35.13;;;20.00;;
51754;SDS011;37829;50.370;30.428;2022-11-20T20:11:46;35.40;;;21.93;;
51754;SDS011;37829;50.370;30.428;2022-11-20T20:12:47;35.20;;;20.95;;
51754;SDS011;37829;50.370;30.428;2022-11-20T20:13:48;38.45;;;22.67;;
51754;SDS011;37829;50.370;30.428;2022-11-20T20:14:49;33.33;;;19.23;;
51754;SDS011;37829;50.370;30.428;2022-11-20T20:15:50;36.35;;;22.90;;
51754;SDS011;37829;50.370;30.428;2022-11-20T20:16:51;34.78;;;17.25;;
51754;SDS011;37829;50.370;30.428;2022-11-20T20:17:52;37.30;;;23.63;;
51754;SDS011;37829;50.370;30.428;2022-11-20T20:18:54;32.30;;;20.35;;
51754;SDS011;37829;50.370;30.428;2022-11-20T20:19:55;36.75;;;22.13;;
51754;SDS011;37829;50.370;30.428;2022-11-20T20:21:00;38.08;;;22.15;;
51754;SDS011;37829;50.370;30.428;2022-11-20T20:22:04;34.85;;;19.58;;
51754;SDS011;37829;50.370;30.428;2022-11-20T20:23:05;41.50;;;25.55;;
51754;SDS011;37829;50.370;30.428;2022-11-20T20:24:06;36.17;;;21.63;;
51754;SDS011;37829;50.370;30.428;2022-11-20T20:25:09;39.47;;;23.42;;
51754;SDS011;37829;50.370;30.428;2022-11-20T20:26:10;40.53;;;24.65;;
51754;SDS011;37829;50.370;30.428;2022-11-20T20:27:12;41.53;;;23.83;;
51754;SDS011;37829;50.370;30.428;2022-11-20T20:28:13;45.08;;;26.20;;
51754;SDS011;37829;50.370;30.428;2022-11-20T20:29:14;35.78;;;18.23;;
51754;SDS011;37829;50.370;30.428;2022-11-20T20:30:15;44.47;;;26.33;;
51754;SDS011;37829;50.370;30.428;2022-11-20T20:31:17;35.63;;;19.15;;
51754;SDS011;37829;50.370;30.428;2022-11-20T20:32:19;39.75;;;24.88;;
51754;SDS011;37829;50.370;30.428;2022-11-20T20:33:20;40.85;;;23.42;;
51754;SDS011;37829;50.370;30.428;2022-11-20T20:34:22;43.65;;;24.55;;
51754;SDS011;37829;50.370;30.428;2022-11-20T20:35:23;44.88;;;25.67;;
51754;SDS011;37829;50.370;30.428;2022-11-20T20:36:24;35.28;;;18.80;;
51754;SDS011;37829;50.370;30.428;2022-11-20T20:37:25;45.80;;;25.45;;
51754;SDS011;37829;50.370;30.428;2022-11-20T20:38:26;42.35;;;20.77;;
51754;SDS011;37829;50.370;30.428;2022-11-20T20:39:28;37.03;;;18.90;;
51754;SDS011;37829;50.370;30.428;2022-11-20T20:40:29;41.53;;;26.73;;
51754;SDS011;37829;50.370;30.428;2022-11-20T20:41:30;40.28;;;23.13;;
51754;SDS011;37829;50.370;30.428;2022-11-20T20:42:31;42.50;;;25.05;;
51754;SDS011;37829;50.370;30.428;2022-11-20T20:43:32;41.85;;;22.50;;
51754;SDS011;37829;50.370;30.428;2022-11-20T20:44:54;44.40;;;25.30;;
51754;SDS011;37829;50.370;30.428;2022-11-20T20:46:13;41.47;;;21.80;;
51754;SDS011;37829;50.370;30.428;2022-11-20T20:47:14;41.33;;;19.73;;
51754;SDS011;37829;50.370;30.428;2022-11-20T20:48:15;46.27;;;26.60;;
51754;SDS011;37829;50.370;30.428;2022-11-20T20:50:17;35.95;;;20.45;;
51754;SDS011;37829;50.370;30.428;2022-11-20T20:51:19;41.47;;;22.60;;
51754;SDS011;37829;50.370;30.428;2022-11-20T20:52:20;42.37;;;23.73;;
51754;SDS011;37829;50.370;30.428;2022-11-20T20:53:21;41.85;;;24.50;;
51754;SDS011;37829;50.370;30.428;2022-11-20T20:54:22;42.15;;;21.25;;
51754;SDS011;37829;50.370;30.428;2022-11-20T20:55:23;46.78;;;24.80;;
51754;SDS011;37829;50.370;30.428;2022-11-20T20:56:25;45.40;;;26.65;;
51754;SDS011;37829;50.370;30.428;2022-11-20T20:57:26;37.17;;;19.60;;
51754;SDS011;37829;50.370;30.428;2022-11-20T20:58:28;44.47;;;26.90;;
51754;SDS011;37829;50.370;30.428;2022-11-20T20:59:29;40.67;;;17.60;;
51754;SDS011;37829;50.370;30.428;2022-11-20T21:00:31;51.40;;;27.17;;
51754;SDS011;37829;50.370;30.428;2022-11-20T21:01:31;48.37;;;26.93;;
51754;SDS011;37829;50.370;30.428;2022-11-20T21:02:33;40.70;;;22.25;;
51754;SDS011;37829;50.370;30.428;2022-11-20T21:03:34;48.20;;;26.05;;
51754;SDS011;37829;50.370;30.428;2022-11-20T21:04:35;46.78;;;25.40;;
51754;SDS011;37829;50.370;30.428;2022-11-20T21:05:36;42.28;;;19.95;;
51754;SDS011;37829;50.370;30.428;2022-11-20T21:06:37;53.55;;;29.13;;
51754;SDS011;37829;50.370;30.428;2022-11-20T21:07:38;48.60;;;24.52;;
51754;SDS011;37829;50.370;30.428;2022-11-20T21:08:59;41.75;;;19.63;;
51754;SDS011;37829;50.370;30.428;2022-11-20T21:10:00;44.15;;;25.55;;
51754;SDS011;37829;50.370;30.428;2022-11-20T21:11:03;42.22;;;23.98;;
51754;SDS011;37829;50.370;30.428;2022-11-20T21:12:05;44.38;;;24.40;;
51754;SDS011;37829;50.370;30.428;2022-11-20T21:13:06;49.92;;;26.10;;
51754;SDS011;37829;50.370;30.428;2022-11-20T21:14:07;35.08;;;19.50;;
51754;SDS011;37829;50.370;30.428;2022-11-20T21:15:08;47.03;;;25.90;;
51754;SDS011;37829;50.370;30.428;2022-11-20T21:16:10;42.03;;;22.63;;
51754;SDS011;37829;50.370;30.428;2022-11-20T21:17:11;40.10;;;18.70;;
51754;SDS011;37829;50.370;30.428;2022-11-20T21:18:16;48.45;;;25.88;;
51754;SDS011;37829;50.370;30.428;2022-11-20T21:19:17;46.50;;;25.77;;
51754;SDS011;37829;50.370;30.428;2022-11-20T21:20:19;39.75;;;18.55;;
51754;SDS011;37829;50.370;30.428;2022-11-20T21:21:38;49.72;;;26.30;;
51754;SDS011;37829;50.370;30.428;2022-11-20T21:23:06;41.60;;;20.35;;
51754;SDS011;37829;50.370;30.428;2022-11-20T21:24:07;49.90;;;26.05;;
51754;SDS011;37829;50.370;30.428;2022-11-20T21:25:09;47.80;;;24.38;;
51754;SDS011;37829;50.370;30.428;2022-11-20T21:26:09;49.13;;;28.08;;
51754;SDS011;37829;50.370;30.428;2022-11-20T21:27:11;39.45;;;19.95;;
51754;SDS011;37829;50.370;30.428;2022-11-20T21:28:12;45.78;;;25.70;;
51754;SDS011;37829;50.370;30.428;2022-11-20T21:29:18;43.65;;;21.98;;
51754;SDS011;37829;50.370;30.428;2022-11-20T21:30:19;46.40;;;27.00;;
51754;SDS011;37829;50.370;30.428;2022-11-20T21:31:21;46.93;;;23.57;;
51754;SDS011;37829;50.370;30.428;2022-11-20T21:32:23;47.55;;;24.73;;
51754;SDS011;37829;50.370;30.428;2022-11-20T21:33:23;50.33;;;25.77;;
51754;SDS011;37829;50.370;30.428;2022-11-20T21:34:25;51.70;;;28.33;;
51754;SDS011;37829;50.370;30.428;2022-11-20T21:35:26;51.83;;;27.85;;
51754;SDS011;37829;50.370;30.428;2022-11-20T21:36:28;51.95;;;27.10;;
51754;SDS011;37829;50.370;30.428;2022-11-20T21:37:29;49.72;;;25.67;;
51754;SDS011;37829;50.370;30.428;2022-11-20T21:38:30;50.67;;;26.07;;
51754;SDS011;37829;50.370;30.428;2022-11-20T21:39:31;47.83;;;24.30;;
51754;SDS011;37829;50.370;30.428;2022-11-20T21:40:32;50.95;;;28.85;;
51754;SDS011;37829;50.370;30.428;2022-11-20T21:41:33;51.53;;;24.88;;
51754;SDS011;37829;50.370;30.428;2022-11-20T21:42:35;52.03;;;27.77;;
51754;SDS011;37829;50.370;30.428;2022-11-20T21:43:36;46.58;;;27.35;;
51754;SDS011;37829;50.370;30.428;2022-11-20T21:44:37;44.50;;;23.48;;
51754;SDS011;37829;50.370;30.428;2022-11-20T21:45:38;46.47;;;26.25;;
51754;SDS011;37829;50.370;30.428;2022-11-20T21:46:40;47.95;;;22.55;;
51754;SDS011;37829;50.370;30.428;2022-11-20T21:47:41;49.47;;;27.10;;
51754;SDS011;37829;50.370;30.428;2022-11-20T21:48:43;50.72;;;25.90;;
51754;SDS011;37829;50.370;30.428;2022-11-20T21:49:44;37.95;;;17.75;;
51754;SDS011;37829;50.370;30.428;2022-11-20T21:50:45;53.73;;;27.93;;
51754;SDS011;37829;50.370;30.428;2022-11-20T21:51:47;51.33;;;25.77;;
51754;SDS011;37829;50.370;30.428;2022-11-20T21:52:47;54.13;;;29.03;;
51754;SDS011;37829;50.370;30.428;2022-11-20T21:53:49;54.58;;;27.92;;
51754;SDS011;37829;50.370;30.428;2022-11-20T21:54:50;49.65;;;26.13;;
51754;SDS011;37829;50.370;30.428;2022-11-20T21:55:52;56.22;;;30.42;;
51754;SDS011;37829;50.370;30.428;2022-11-20T21:56:52;45.00;;;19.65;;
51754;SDS011;37829;50.370;30.428;2022-11-20T21:57:54;53.35;;;28.40;;
51754;SDS011;37829;50.370;30.428;2022-11-20T21:58:55;57.78;;;30.67;;
51754;SDS011;37829;50.370;30.428;2022-11-20T21:59:56;50.47;;;21.65;;
51754;SDS011;37829;50.370;30.428;2022-11-20T22:00:57;52.57;;;28.63;;
51754;SDS011;37829;50.370;30.428;2022-11-20T22:01:58;54.15;;;28.35;;
51754;SDS011;37829;50.370;30.428;2022-11-20T22:02:59;56.20;;;26.13;;
51754;SDS011;37829;50.370;30.428;2022-11-20T22:04:01;52.85;;;28.08;;
51754;SDS011;37829;50.370;30.428;2022-11-20T22:05:02;56.90;;;28.95;;
51754;SDS011;37829;50.370;30.428;2022-11-20T22:06:03;41.92;;;19.80;;
51754;SDS011;37829;50.370;30.428;2022-11-20T22:07:05;57.05;;;29.35;;
51754;SDS011;37829;50.370;30.428;2022-11-20T22:08:06;53.28;;;28.38;;
51754;SDS011;37829;50.370;30.428;2022-11-20T22:09:08;56.85;;;25.85;;
51754;SDS011;37829;50.370;30.428;2022-11-20T22:10:09;62.95;;;31.15;;
51754;SDS011;37829;50.370;30.428;2022-11-20T22:11:18;57.47;;;24.33;;
51754;SDS011;37829;50.370;30.428;2022-11-20T22:12:20;55.53;;;28.27;;
51754;SDS011;37829;50.370;30.428;2022-11-20T22:13:22;57.13;;;30.30;;
51754;SDS011;37829;50.370;30.428;2022-11-20T22:14:42;47.92;;;22.13;;
51754;SDS011;37829;50.370;30.428;2022-11-20T22:15:45;53.70;;;25.08;;
51754;SDS011;37829;50.370;30.428;2022-11-20T22:17:01;58.25;;;26.80;;
51754;SDS011;37829;50.370;30.428;2022-11-20T22:18:02;59.00;;;28.90;;
51754;SDS011;37829;50.370;30.428;2022-11-20T22:19:14;48.60;;;23.23;;
51754;SDS011;37829;50.370;30.428;2022-11-20T22:20:15;49.88;;;19.98;;
51754;SDS011;37829;50.370;30.428;2022-11-20T22:21:16;60.20;;;30.97;;
51754;SDS011;37829;50.370;30.428;2022-11-20T22:23:19;50.53;;;24.10;;
51754;SDS011;37829;50.370;30.428;2022-11-20T22:24:20;59.13;;;25.30;;
51754;SDS011;37829;50.370;30.428;2022-11-20T22:25:22;62.17;;;30.35;;
51754;SDS011;37829;50.370;30.428;2022-11-20T22:26:24;60.07;;;31.23;;
51754;SDS011;37829;50.370;30.428;2022-11-20T22:28:27;57.75;;;27.40;;
51754;SDS011;37829;50.370;30.428;2022-11-20T22:29:28;66.50;;;27.75;;
51754;SDS011;37829;50.370;30.428;2022-11-20T22:30:29;65.03;;;31.70;;
51754;SDS011;37829;50.370;30.428;2022-11-20T22:31:30;53.05;;;22.90;;
51754;SDS011;37829;50.370;30.428;2022-11-20T22:32:31;68.65;;;31.63;;
51754;SDS011;37829;50.370;30.428;2022-11-20T22:33:32;65.03;;;32.00;;
51754;SDS011;37829;50.370;30.428;2022-11-20T22:34:33;55.58;;;26.25;;
51754;SDS011;37829;50.370;30.428;2022-11-20T22:35:34;62.03;;;30.83;;
51754;SDS011;37829;50.370;30.428;2022-11-20T22:36:35;64.07;;;31.23;;
51754;SDS011;37829;50.370;30.428;2022-11-20T22:37:37;67.75;;;31.90;;
51754;SDS011;37829;50.370;30.428;2022-11-20T22:38:38;61.35;;;25.73;;
51754;SDS011;37829;50.370;30.428;2022-11-20T22:40:40;57.10;;;24.75;;
51754;SDS011;37829;50.370;30.428;2022-11-20T22:41:43;55.50;;;27.13;;
51754;SDS011;37829;50.370;30.428;2022-11-20T22:42:44;68.70;;;33.67;;
51754;SDS011;37829;50.370;30.428;2022-11-20T22:43:46;68.78;;;33.75;;
51754;SDS011;37829;50.370;30.428;2022-11-20T22:44:47;57.90;;;27.15;;
51754;SDS011;37829;50.370;30.428;2022-11-20T22:45:48;54.42;;;23.17;;
51754;SDS011;37829;50.370;30.428;2022-11-20T22:46:49;61.87;;;30.47;;
51754;SDS011;37829;50.370;30.428;2022-11-20T22:47:50;48.60;;;22.00;;
51754;SDS011;37829;50.370;30.428;2022-11-20T22:48:51;60.38;;;29.73;;
51754;SDS011;37829;50.370;30.428;2022-11-20T22:49:52;59.95;;;28.85;;
51754;SDS011;37829;50.370;30.428;2022-11-20T22:50:58;54.97;;;25.83;;
51754;SDS011;37829;50.370;30.428;2022-11-20T22:52:00;60.63;;;27.48;;
51754;SDS011;37829;50.370;30.428;2022-11-20T22:53:01;60.30;;;30.33;;
51754;SDS011;37829;50.370;30.428;2022-11-20T22:54:02;60.40;;;28.45;;
51754;SDS011;37829;50.370;30.428;2022-11-20T22:55:03;61.63;;;29.13;;
51754;SDS011;37829;50.370;30.428;2022-11-20T22:56:05;50.85;;;24.17;;
51754;SDS011;37829;50.370;30.428;2022-11-20T22:57:06;62.97;;;29.33;;
51754;SDS011;37829;50.370;30.428;2022-11-20T22:58:07;72.03;;;33.58;;
51754;SDS011;37829;50.370;30.428;2022-11-20T22:59:09;55.90;;;24.63;;
51754;SDS011;37829;50.370;30.428;2022-11-20T23:00:11;63.80;;;32.38;;
51754;SDS011;37829;50.370;30.428;2022-11-20T23:01:12;58.33;;;27.30;;
51754;SDS011;37829;50.370;30.428;2022-11-20T23:02:14;66.38;;;32.03;;
51754;SDS011;37829;50.370;30.428;2022-11-20T23:03:14;58.95;;;24.83;;
51754;SDS011;37829;50.370;30.428;2022-11-20T23:04:16;46.03;;;19.52;;
51754;SDS011;37829;50.370;30.428;2022-11-20T23:05:17;64.45;;;29.45;;
51754;SDS011;37829;50.370;30.428;2022-11-20T23:06:18;55.83;;;23.75;;
51754;SDS011;37829;50.370;30.428;2022-11-20T23:07:19;62.05;;;28.88;;
51754;SDS011;37829;50.370;30.428;2022-11-20T23:08:20;50.75;;;23.20;;
51754;SDS011;37829;50.370;30.428;2022-11-20T23:09:21;58.72;;;29.17;;
51754;SDS011;37829;50.370;30.428;2022-11-20T23:10:22;53.28;;;23.80;;
51754;SDS011;37829;50.370;30.428;2022-11-20T23:11:24;56.28;;;29.02;;
51754;SDS011;37829;50.370;30.428;2022-11-20T23:13:26;48.25;;;20.77;;
51754;SDS011;37829;50.370;30.428;2022-11-20T23:14:28;57.58;;;28.33;;
51754;SDS011;37829;50.370;30.428;2022-11-20T23:15:31;55.03;;;26.05;;
51754;SDS011;37829;50.370;30.428;2022-11-20T23:16:32;58.47;;;27.15;;
51754;SDS011;37829;50.370;30.428;2022-11-20T23:17:34;59.28;;;26.70;;
51754;SDS011;37829;50.370;30.428;2022-11-20T23:18:35;56.83;;;28.85;;
51754;SDS011;37829;50.370;30.428;2022-11-20T23:19:36;65.43;;;29.60;;
51754;SDS011;37829;50.370;30.428;2022-11-20T23:20:37;46.53;;;20.10;;
51754;SDS011;37829;50.370;30.428;2022-11-20T23:21:39;61.35;;;28.15;;
51754;SDS011;37829;50.370;30.428;2022-11-20T23:22:40;51.58;;;24.30;;
51754;SDS011;37829;50.370;30.428;2022-11-20T23:23:42;53.42;;;27.25;;
51754;SDS011;37829;50.370;30.428;2022-11-20T23:24:43;50.42;;;24.33;;
51754;SDS011;37829;50.370;30.428;2022-11-20T23:25:44;55.83;;;27.00;;
51754;SDS011;37829;50.370;30.428;2022-11-20T23:26:45;54.40;;;24.27;;